LFSL 301030Z AUTO VRB04KT CAVOK 24/11 Q1016

ElémentsDécodage
LFSL Station météo située sur l'aérodrome de TOUL Rosières
301030Z émis le 30 du mois à 10h30 UTC
AUTO Bulletin édité par un automate
VRB04KT vent de direction variable, 04 noeuds
CAVOK Ceiling And Visibility OK
- Visibilité de 10 Km ou plus
- Pas de nuage au-dessous de 1500m ou au-dessous de l'altitude minimale du secteur la plus élevée (si>1500m) et absence de CB
- pas de temps présent significatif
24/11 température 24°C, point de rosée 11°C
 soit une humidité relative de 44%
Q1016 la pression au niveau de la mer (QNH) est de 1016 hPa